Time;durP1;ratioP1;P1;durP2;ratioP2;P2;SDS_P1;SDS_P2;PMS_P1;PMS_P2;Temp;Humidity;BMP_temperature;BMP_pressure;BME280_temperature;BME280_humidity;BME280_pressure;Samples;Min_cycle;Max_cycle;Signal;HPM_P1;HPM_P2
2023/04/12 00:00:12;;;;;;;;;;;9.00;99.90;;;;;;5092742;28;19912;-83
2023/04/12 00:02:40;;;;;;;;;;;9.20;99.90;;;;;;5074210;28;19916;-83
2023/04/12 00:05:08;;;;;;;;;;;9.10;99.90;;;;;;5092529;28;19920;-82
2023/04/12 00:07:34;;;;;;;;;;;9.20;99.90;;;;;;5092840;28;19912;-82
2023/04/12 00:10:00;;;;;;;;;;;9.20;99.90;;;;;;5092664;28;20324;-82
2023/04/12 00:12:26;;;;;;;;;;;9.20;99.90;;;;;;5092197;28;19916;-82
2023/04/12 00:14:51;;;;;;;;;;;9.30;99.90;;;;;;5092436;28;19933;-82
2023/04/12 00:17:18;;;;;;;;;;;9.30;99.90;;;;;;5092735;28;20361;-83
2023/04/12 00:19:43;;;;;;;;;;;9.40;99.90;;;;;;5091999;28;20297;-82
2023/04/12 00:22:10;;;;;;;;;;;9.40;99.90;;;;;;5092228;28;19916;-83
2023/04/12 00:24:39;;;;;;;;;;;9.40;99.90;;;;;;5092571;28;19916;-83
2023/04/12 00:27:05;;;;;;;;;;;9.40;99.90;;;;;;5092403;28;19920;-83
2023/04/12 00:29:31;;;;;;;;;;;9.40;99.90;;;;;;5096521;28;19966;-83
2023/04/12 00:32:00;;;;;;;;;;;9.40;99.90;;;;;;5077812;28;19961;-83
2023/04/12 00:34:27;;;;;;;;;;;9.40;99.90;;;;;;5096062;28;19927;-83
2023/04/12 00:36:52;;;;;;;;;;;9.50;99.90;;;;;;5096407;28;20037;-83
2023/04/12 00:39:18;;;;;;;;;;;9.50;99.90;;;;;;5096183;28;19922;-83
2023/04/12 00:41:44;;;;;;;;;;;9.60;99.90;;;;;;5096137;28;20434;-83
2023/04/12 00:44:10;;;;;;;;;;;9.70;99.90;;;;;;5095932;28;20432;-83
2023/04/12 00:46:36;;;;;;;;;;;9.60;99.90;;;;;;5077725;28;19989;-83
2023/04/12 00:49:02;;;;;;;;;;;9.60;99.90;;;;;;5077558;28;19916;-84
2023/04/12 00:51:32;;;;;;;;;;;9.60;99.90;;;;;;5077786;28;19916;-84
2023/04/12 00:53:58;;;;;;;;;;;9.60;99.90;;;;;;5077098;28;20391;-83
2023/04/12 00:56:26;;;;;;;;;;;9.60;99.90;;;;;;5077435;28;19962;-83
2023/04/12 00:58:52;;;;;;;;;;;9.70;99.90;;;;;;5095651;28;19977;-84
2023/04/12 01:01:18;;;;;;;;;;;9.70;99.90;;;;;;5077512;28;20338;-83
2023/04/12 01:03:44;;;;;;;;;;;9.70;99.90;;;;;;5095412;28;19916;-83
2023/04/12 01:06:36;;;;;;;;;;;9.70;99.90;;;;;;5095532;28;20222;-83
2023/04/12 01:09:10;;;;;;;;;;;9.70;99.90;;;;;;5077030;28;20196;-83
2023/04/12 01:11:47;;;;;;;;;;;9.70;99.90;;;;;;5095543;28;19916;-83
2023/04/12 01:14:20;;;;;;;;;;;9.70;99.90;;;;;;5077216;28;19916;-83
2023/04/12 01:16:50;;;;;;;;;;;9.70;99.90;;;;;;5076986;28;19916;-83
2023/04/12 01:19:21;;;;;;;;;;;9.70;99.90;;;;;;5077268;28;19919;-83
2023/04/12 01:21:55;;;;;;;;;;;9.80;99.90;;;;;;5095053;28;19912;-83
2023/04/12 01:24:44;;;;;;;;;;;9.70;99.90;;;;;;5095238;28;19912;-83
2023/04/12 01:27:12;;;;;;;;;;;9.70;99.90;;;;;;5084348;28;19931;-83
2023/04/12 01:29:38;;;;;;;;;;;9.80;99.90;;;;;;5076972;28;19966;-83
2023/04/12 01:32:05;;;;;;;;;;;9.70;99.90;;;;;;5076856;28;19989;-83
2023/04/12 01:34:32;;;;;;;;;;;9.70;99.90;;;;;;5095113;28;19920;-83
2023/04/12 01:37:00;;;;;;;;;;;9.70;99.90;;;;;;5094886;28;19962;-83
2023/04/12 01:39:26;;;;;;;;;;;9.70;99.90;;;;;;5094167;28;19940;-82
2023/04/12 01:41:52;;;;;;;;;;;9.70;99.90;;;;;;5094738;28;19912;-83
2023/04/12 01:44:17;;;;;;;;;;;9.70;99.90;;;;;;5095182;28;19918;-83
2023/04/12 01:46:46;;;;;;;;;;;9.70;99.90;;;;;;5076472;28;20281;-83
2023/04/12 01:49:12;;;;;;;;;;;9.70;99.90;;;;;;5094898;28;20301;-83
2023/04/12 01:51:41;;;;;;;;;;;9.80;99.90;;;;;;5076334;28;19923;-83
2023/04/12 01:54:15;;;;;;;;;;;9.70;99.90;;;;;;5076389;28;20341;-83
2023/04/12 01:56:45;;;;;;;;;;;9.70;99.90;;;;;;5094629;28;19912;-83
2023/04/12 01:59:13;;;;;;;;;;;9.70;99.90;;;;;;5076206;28;19912;-83
2023/04/12 02:01:40;;;;;;;;;;;9.70;99.90;;;;;;5076418;28;20353;-82
2023/04/12 02:04:07;;;;;;;;;;;9.60;99.90;;;;;;5094644;28;20014;-83
2023/04/12 02:06:33;;;;;;;;;;;9.60;99.90;;;;;;5094183;28;19924;-82
2023/04/12 02:09:01;;;;;;;;;;;9.70;99.90;;;;;;5094229;28;20498;-83
2023/04/12 02:11:26;;;;;;;;;;;9.80;99.90;;;;;;5075979;28;19919;-83
2023/04/12 02:13:52;;;;;;;;;;;9.70;99.90;;;;;;5093966;28;19912;-81
2023/04/12 02:16:19;;;;;;;;;;;9.70;99.90;;;;;;5076105;28;20328;-82
2023/04/12 02:18:46;;;;;;;;;;;9.60;99.90;;;;;;5075689;28;19999;-82
2023/04/12 02:21:13;;;;;;;;;;;9.60;99.90;;;;;;5075914;28;19969;-81
2023/04/12 02:23:40;;;;;;;;;;;9.70;99.90;;;;;;5094320;28;19916;-81
2023/04/12 02:26:06;;;;;;;;;;;9.70;99.90;;;;;;5094027;28;19922;-81
2023/04/12 02:28:33;;;;;;;;;;;9.60;99.90;;;;;;5075851;28;20007;-81
2023/04/12 02:31:00;;;;;;;;;;;9.70;99.90;;;;;;5075541;28;19969;-81
2023/04/12 02:33:27;;;;;;;;;;;9.70;99.90;;;;;;5075511;28;19919;-80
2023/04/12 02:35:56;;;;;;;;;;;9.60;99.90;;;;;;5075416;28;19916;-80
2023/04/12 02:38:22;;;;;;;;;;;9.60;99.90;;;;;;5075696;28;19965;-80
2023/04/12 02:40:48;;;;;;;;;;;9.60;99.90;;;;;;5075658;28;19923;-81
2023/04/12 02:43:16;;;;;;;;;;;9.60;99.90;;;;;;5075629;28;19912;-81
2023/04/12 02:45:46;;;;;;;;;;;9.50;99.90;;;;;;5075309;28;19959;-81
2023/04/12 02:48:11;;;;;;;;;;;9.50;99.90;;;;;;5075446;28;19943;-81
2023/04/12 02:50:37;;;;;;;;;;;9.40;99.90;;;;;;5074927;28;19958;-81
2023/04/12 02:53:17;;;;;;;;;;;9.40;99.90;;;;;;5075311;28;19916;-82
2023/04/12 02:55:47;;;;;;;;;;;9.40;99.90;;;;;;5074943;28;20297;-82
2023/04/12 02:58:17;;;;;;;;;;;9.40;99.90;;;;;;5075160;28;19919;-82
2023/04/12 03:00:48;;;;;;;;;;;9.30;99.90;;;;;;5076061;28;19919;-82
2023/04/12 03:03:16;;;;;;;;;;;9.30;99.90;;;;;;5075621;28;20377;-82
2023/04/12 03:05:46;;;;;;;;;;;9.30;99.90;;;;;;5075283;28;19920;-82
2023/04/12 03:08:14;;;;;;;;;;;9.20;99.90;;;;;;5075148;28;19916;-82
2023/04/12 03:10:50;;;;;;;;;;;9.20;99.90;;;;;;5074757;28;19912;-82
2023/04/12 03:13:16;;;;;;;;;;;9.20;99.90;;;;;;5075213;28;19954;-82
2023/04/12 03:15:46;;;;;;;;;;;9.20;99.90;;;;;;5075080;28;19965;-79
2023/04/12 03:18:13;;;;;;;;;;;9.10;99.90;;;;;;5075007;28;20452;-81
2023/04/12 03:20:47;;;;;;;;;;;9.10;99.90;;;;;;5075102;28;19912;-81
2023/04/12 03:23:13;;;;;;;;;;;9.20;99.90;;;;;;5093223;28;20376;-81
2023/04/12 03:25:43;;;;;;;;;;;9.20;99.90;;;;;;5074751;28;19962;-81
2023/04/12 03:28:28;;;;;;;;;;;9.30;99.90;;;;;;5093551;28;19923;-80
2023/04/12 03:30:54;;;;;;;;;;;9.20;99.90;;;;;;5074677;28;19912;-81
2023/04/12 03:33:23;;;;;;;;;;;9.20;99.90;;;;;;5074816;28;20410;-81
2023/04/12 03:35:53;;;;;;;;;;;9.10;99.90;;;;;;5074892;28;19977;-82
2023/04/12 03:38:19;;;;;;;;;;;9.10;99.90;;;;;;5093001;28;19916;-82
2023/04/12 03:40:45;;;;;;;;;;;9.00;99.90;;;;;;5074902;28;20441;-81
2023/04/12 03:43:11;;;;;;;;;;;8.90;99.90;;;;;;5075007;28;19973;-81
2023/04/12 03:45:37;;;;;;;;;;;8.80;99.90;;;;;;5074658;28;19916;-81
2023/04/12 03:48:03;;;;;;;;;;;8.80;99.90;;;;;;5074672;28;20026;-82
2023/04/12 03:50:43;;;;;;;;;;;8.70;99.90;;;;;;5075197;28;20346;-81
2023/04/12 03:53:13;;;;;;;;;;;8.70;99.90;;;;;;5074855;28;19923;-82
2023/04/12 03:55:43;;;;;;;;;;;8.60;99.90;;;;;;5071182;28;19921;-82
2023/04/12 03:58:09;;;;;;;;;;;8.50;99.90;;;;;;5071014;28;19988;-80
2023/04/12 04:00:41;;;;;;;;;;;8.40;99.90;;;;;;5071139;28;19917;-81
2023/04/12 04:03:08;;;;;;;;;;;8.40;99.90;;;;;;5074580;28;19959;-81
2023/04/12 04:05:44;;;;;;;;;;;8.30;99.90;;;;;;5074883;28;20332;-81
2023/04/12 04:08:12;;;;;;;;;;;8.30;99.90;;;;;;5074910;28;20024;-81
2023/04/12 04:10:48;;;;;;;;;;;8.20;99.90;;;;;;5074894;28;19919;-80
2023/04/12 04:13:14;;;;;;;;;;;8.20;99.90;;;;;;5075019;28;19916;-81
2023/04/12 04:15:40;;;;;;;;;;;8.20;99.90;;;;;;5074946;28;19991;-81
2023/04/12 04:18:07;;;;;;;;;;;8.10;99.90;;;;;;5074722;28;19939;-81
2023/04/12 04:20:33;;;;;;;;;;;7.90;99.90;;;;;;5074788;28;19912;-81
2023/04/12 04:22:59;;;;;;;;;;;7.90;99.90;;;;;;5074052;28;19998;-81
2023/04/12 04:25:32;;;;;;;;;;;7.80;99.90;;;;;;5074684;28;19925;-80
2023/04/12 04:28:02;;;;;;;;;;;7.70;99.90;;;;;;5074516;28;19978;-81
2023/04/12 04:30:29;;;;;;;;;;;7.60;99.90;;;;;;5074619;28;20007;-81
2023/04/12 04:32:55;;;;;;;;;;;7.60;99.90;;;;;;5075969;28;19920;-81
2023/04/12 04:35:24;;;;;;;;;;;7.60;99.90;;;;;;5074393;28;19916;-81
2023/04/12 04:38:04;;;;;;;;;;;7.60;99.90;;;;;;5074504;28;19912;-81
2023/04/12 04:40:31;;;;;;;;;;;7.60;99.90;;;;;;5074625;28;19916;-81
2023/04/12 04:42:58;;;;;;;;;;;7.60;99.90;;;;;;5074047;28;19916;-80
2023/04/12 04:45:29;;;;;;;;;;;7.60;99.90;;;;;;5074206;28;19920;-80
2023/04/12 04:47:55;;;;;;;;;;;7.50;99.90;;;;;;5075449;28;20330;-81
2023/04/12 04:50:22;;;;;;;;;;;7.60;99.90;;;;;;5075831;28;19913;-80
2023/04/12 04:52:49;;;;;;;;;;;7.60;99.90;;;;;;5073967;28;19944;-80
2023/04/12 04:55:17;;;;;;;;;;;7.70;99.90;;;;;;5074204;28;19924;-80
2023/04/12 04:57:44;;;;;;;;;;;7.70;99.90;;;;;;5073828;28;19999;-80
2023/04/12 05:00:15;;;;;;;;;;;7.70;99.90;;;;;;5107873;28;19912;-80
2023/04/12 05:02:45;;;;;;;;;;;7.70;99.90;;;;;;5073612;28;20057;-81
2023/04/12 05:05:15;;;;;;;;;;;7.70;99.90;;;;;;5107525;28;19983;-80
2023/04/12 05:07:42;;;;;;;;;;;7.70;99.90;;;;;;5073875;28;19917;-81
2023/04/12 05:10:09;;;;;;;;;;;7.80;99.90;;;;;;5073795;28;19917;-80
2023/04/12 05:12:39;;;;;;;;;;;7.80;99.90;;;;;;5073576;28;20417;-80
2023/04/12 05:15:05;;;;;;;;;;;7.90;99.90;;;;;;5073757;28;19955;-80
2023/04/12 05:17:35;;;;;;;;;;;8.00;99.90;;;;;;5073485;28;19913;-80
2023/04/12 05:20:03;;;;;;;;;;;8.20;99.90;;;;;;5074727;28;19916;-80
2023/04/12 05:22:29;;;;;;;;;;;8.30;99.90;;;;;;5099190;28;19912;-79
2023/04/12 05:24:55;;;;;;;;;;;8.50;99.90;;;;;;5055957;28;19999;-80
2023/04/12 05:27:28;;;;;;;;;;;8.70;99.90;;;;;;5039084;28;19919;-78
2023/04/12 05:29:55;;;;;;;;;;;8.80;99.90;;;;;;5039605;28;19938;-79
2023/04/12 05:32:23;;;;;;;;;;;9.00;99.90;;;;;;5055008;28;20009;-79
2023/04/12 05:34:49;;;;;;;;;;;9.20;99.90;;;;;;5054822;28;20681;-79
2023/04/12 05:37:16;;;;;;;;;;;9.40;99.90;;;;;;5055011;28;20369;-79
2023/04/12 05:39:41;;;;;;;;;;;9.60;99.90;;;;;;5050705;28;20015;-79
2023/04/12 05:42:08;;;;;;;;;;;9.70;99.90;;;;;;5050203;28;19922;-79
2023/04/12 05:44:37;;;;;;;;;;;9.90;99.90;;;;;;5051424;28;19916;-79
2023/04/12 05:47:05;;;;;;;;;;;10.10;99.90;;;;;;5032520;28;19916;-79
2023/04/12 05:49:31;;;;;;;;;;;10.30;99.90;;;;;;5037388;28;20331;-78
2023/04/12 05:51:58;;;;;;;;;;;10.50;99.90;;;;;;5044262;28;20692;-78
2023/04/12 05:54:24;;;;;;;;;;;10.60;99.90;;;;;;5057691;28;19927;-78
2023/04/12 05:56:53;;;;;;;;;;;10.80;99.90;;;;;;5054132;28;19916;-79
2023/04/12 05:59:19;;;;;;;;;;;11.10;99.20;;;;;;5056975;28;19916;-79
2023/04/12 06:01:48;;;;;;;;;;;11.30;96.00;;;;;;5056729;28;20459;-79
2023/04/12 06:04:16;;;;;;;;;;;11.60;93.10;;;;;;5055994;28;20351;-79
2023/04/12 06:06:42;;;;;;;;;;;11.90;94.80;;;;;;5052350;28;19920;-79
2023/04/12 06:09:09;;;;;;;;;;;12.10;91.30;;;;;;5073903;28;19912;-78
2023/04/12 06:11:34;;;;;;;;;;;12.20;87.50;;;;;;5057442;28;20035;-78
2023/04/12 06:14:01;;;;;;;;;;;12.30;91.00;;;;;;5076079;28;19970;-78
2023/04/12 06:16:28;;;;;;;;;;;12.50;92.50;;;;;;5053682;28;19916;-79
2023/04/12 06:18:54;;;;;;;;;;;12.70;91.50;;;;;;5065590;28;19963;-79
2023/04/12 06:21:20;;;;;;;;;;;12.90;88.30;;;;;;5051729;28;19916;-79
2023/04/12 06:23:45;;;;;;;;;;;13.00;90.90;;;;;;5057507;28;19955;-79
2023/04/12 06:26:11;;;;;;;;;;;13.00;90.40;;;;;;5091870;28;19987;-78
2023/04/12 06:28:38;;;;;;;;;;;13.20;89.90;;;;;;5057193;28;19922;-78
2023/04/12 06:31:04;;;;;;;;;;;13.30;84.20;;;;;;5056899;28;19951;-78
2023/04/12 06:33:36;;;;;;;;;;;13.70;85.80;;;;;;5056769;28;19920;-78
2023/04/12 06:36:05;;;;;;;;;;;13.80;86.90;;;;;;5056029;28;20532;-78
2023/04/12 06:38:31;;;;;;;;;;;14.20;87.50;;;;;;5076666;28;19922;-79
2023/04/12 06:40:57;;;;;;;;;;;14.30;92.30;;;;;;5083572;28;19912;-79
2023/04/12 06:43:23;;;;;;;;;;;14.50;84.10;;;;;;5075238;28;19916;-78
2023/04/12 06:45:49;;;;;;;;;;;14.80;71.20;;;;;;5075578;28;20504;-79
2023/04/12 06:48:14;;;;;;;;;;;15.10;67.30;;;;;;5071153;28;19916;-80
2023/04/12 06:50:40;;;;;;;;;;;15.10;77.50;;;;;;5071820;28;19919;-79
2023/04/12 06:53:06;;;;;;;;;;;15.00;70.70;;;;;;5075002;28;19916;-78
2023/04/12 06:55:32;;;;;;;;;;;15.20;65.50;;;;;;5074387;28;19924;-79
2023/04/12 06:57:57;;;;;;;;;;;15.40;69.10;;;;;;5075269;28;19960;-79
2023/04/12 07:00:23;;;;;;;;;;;15.30;65.00;;;;;;5075096;28;19974;-79
2023/04/12 07:02:49;;;;;;;;;;;15.60;65.80;;;;;;5075222;28;20329;-79
2023/04/12 07:05:16;;;;;;;;;;;15.90;66.20;;;;;;5074904;28;19919;-79
2023/04/12 07:07:41;;;;;;;;;;;16.00;58.40;;;;;;5074941;28;20286;-80
2023/04/12 07:10:07;;;;;;;;;;;16.20;60.10;;;;;;5073592;28;19922;-79
2023/04/12 07:12:33;;;;;;;;;;;16.20;66.10;;;;;;5070428;28;20438;-79
2023/04/12 07:14:59;;;;;;;;;;;16.30;66.80;;;;;;5070422;28;20342;-79
2023/04/12 07:17:25;;;;;;;;;;;16.20;61.90;;;;;;5070241;28;19916;-79
2023/04/12 07:19:54;;;;;;;;;;;16.50;57.60;;;;;;5070478;28;19916;-79
2023/04/12 07:22:20;;;;;;;;;;;16.60;64.90;;;;;;5069630;28;19916;-79
2023/04/12 07:24:46;;;;;;;;;;;16.80;63.80;;;;;;5070358;28;19920;-79
2023/04/12 07:27:11;;;;;;;;;;;17.10;60.40;;;;;;5069572;28;19923;-79
2023/04/12 07:29:38;;;;;;;;;;;17.50;64.90;;;;;;5068793;28;19916;-79
2023/04/12 07:32:03;;;;;;;;;;;17.70;65.30;;;;;;5069261;28;19916;-79
2023/04/12 07:34:29;;;;;;;;;;;17.50;58.40;;;;;;5070330;28;19912;-80
2023/04/12 07:36:55;;;;;;;;;;;17.70;64.60;;;;;;5068904;28;19920;-80
2023/04/12 07:39:21;;;;;;;;;;;17.60;67.20;;;;;;5073831;28;20405;-80
2023/04/12 07:41:48;;;;;;;;;;;17.20;67.00;;;;;;5074855;28;19920;-80
2023/04/12 07:44:14;;;;;;;;;;;17.50;57.80;;;;;;5079686;28;20027;-79
2023/04/12 07:46:40;;;;;;;;;;;17.80;62.90;;;;;;5079495;28;20010;-79
2023/04/12 07:49:11;;;;;;;;;;;17.60;59.20;;;;;;5079655;28;19923;-79
2023/04/12 07:51:37;;;;;;;;;;;17.60;56.00;;;;;;5079423;28;20691;-78
2023/04/12 07:54:03;;;;;;;;;;;17.50;56.10;;;;;;5078233;28;19916;-79
2023/04/12 07:56:29;;;;;;;;;;;17.70;59.80;;;;;;5078526;28;20734;-78
2023/04/12 07:58:55;;;;;;;;;;;18.30;58.80;;;;;;5079689;28;19916;-79
2023/04/12 08:01:21;;;;;;;;;;;17.90;58.00;;;;;;5079174;28;20010;-79
2023/04/12 08:03:46;;;;;;;;;;;18.30;58.70;;;;;;5078783;28;19912;-79
2023/04/12 08:06:12;;;;;;;;;;;18.30;59.00;;;;;;5072728;28;20400;-80
2023/04/12 08:08:38;;;;;;;;;;;18.80;56.60;;;;;;5072479;28;20397;-79
2023/04/12 08:11:05;;;;;;;;;;;19.10;50.90;;;;;;5068508;28;19920;-80
2023/04/12 08:13:34;;;;;;;;;;;19.30;57.00;;;;;;5072017;28;20423;-80
2023/04/12 08:16:00;;;;;;;;;;;19.40;51.70;;;;;;5071402;28;20819;-81
2023/04/12 08:18:28;;;;;;;;;;;19.30;54.50;;;;;;5072566;28;20296;-81
2023/04/12 08:20:57;;;;;;;;;;;19.20;54.10;;;;;;5072566;28;19922;-81
2023/04/12 08:23:23;;;;;;;;;;;19.70;55.00;;;;;;5072336;28;20044;-80
2023/04/12 08:25:49;;;;;;;;;;;19.40;55.00;;;;;;5071822;28;19920;-79
2023/04/12 08:28:15;;;;;;;;;;;19.70;57.00;;;;;;5071223;28;19923;-80
2023/04/12 08:30:42;;;;;;;;;;;19.50;68.40;;;;;;5069127;28;20010;-81
2023/04/12 08:33:08;;;;;;;;;;;19.70;57.00;;;;;;5072811;28;19923;-83
2023/04/12 08:35:34;;;;;;;;;;;20.10;58.10;;;;;;5074618;28;19917;-80
2023/04/12 08:38:06;;;;;;;;;;;20.00;56.20;;;;;;5071430;28;19923;-79
2023/04/12 08:40:31;;;;;;;;;;;20.30;59.60;;;;;;5073880;28;19916;-79
2023/04/12 08:43:02;;;;;;;;;;;20.00;56.20;;;;;;5072882;28;19923;-77
2023/04/12 08:45:28;;;;;;;;;;;20.00;59.90;;;;;;5072874;28;20353;-76
2023/04/12 08:47:54;;;;;;;;;;;19.80;55.70;;;;;;5075418;28;19916;-77
2023/04/12 08:50:20;;;;;;;;;;;19.40;67.20;;;;;;5077116;28;19966;-77
2023/04/12 08:52:47;;;;;;;;;;;19.70;59.30;;;;;;5076853;28;19920;-77
2023/04/12 08:55:13;;;;;;;;;;;19.90;61.00;;;;;;5075885;28;19924;-77
2023/04/12 08:57:40;;;;;;;;;;;19.90;60.00;;;;;;5078460;28;19916;-78
2023/04/12 09:00:07;;;;;;;;;;;20.50;59.80;;;;;;5078052;28;20440;-77
2023/04/12 09:02:34;;;;;;;;;;;20.60;65.10;;;;;;5070663;28;19969;-77
2023/04/12 09:05:00;;;;;;;;;;;20.20;68.10;;;;;;5062724;28;20374;-78
2023/04/12 09:07:27;;;;;;;;;;;20.80;64.80;;;;;;5077735;28;19963;-77
2023/04/12 09:09:53;;;;;;;;;;;21.00;58.40;;;;;;5076967;28;20014;-78
2023/04/12 09:12:21;;;;;;;;;;;20.80;59.70;;;;;;5077215;28;20014;-78
2023/04/12 09:14:47;;;;;;;;;;;20.50;60.70;;;;;;5077210;28;19923;-79
2023/04/12 09:17:27;;;;;;;;;;;20.30;58.70;;;;;;5077306;28;20421;-79
2023/04/12 09:19:56;;;;;;;;;;;20.60;57.10;;;;;;5075942;28;19916;-78
2023/04/12 09:22:35;;;;;;;;;;;20.40;58.80;;;;;;5076918;28;19923;-79
2023/04/12 09:25:01;;;;;;;;;;;20.50;56.60;;;;;;5068679;28;19920;-79
2023/04/12 09:27:32;;;;;;;;;;;20.50;55.20;;;;;;5071182;28;20297;-78
2023/04/12 09:30:08;;;;;;;;;;;20.90;58.00;;;;;;5068568;28;19916;-79
2023/04/12 09:32:35;;;;;;;;;;;21.20;56.80;;;;;;5071313;28;20002;-79
2023/04/12 09:35:01;;;;;;;;;;;20.90;54.20;;;;;;5070920;28;19927;-78
2023/04/12 09:37:27;;;;;;;;;;;20.60;58.80;;;;;;5071476;28;19975;-77
2023/04/12 09:40:00;;;;;;;;;;;21.00;56.20;;;;;;5071449;28;19938;-81
2023/04/12 09:45:43;;;;;;;;;;;21.50;58.10;;;;;;5076350;28;19966;-82
2023/04/12 09:48:17;;;;;;;;;;;21.60;52.40;;;;;;5070584;28;19920;-83
2023/04/12 09:50:44;;;;;;;;;;;22.10;59.40;;;;;;5071957;28;19916;-82
2023/04/12 09:53:16;;;;;;;;;;;22.00;57.00;;;;;;5071811;28;20307;-82
2023/04/12 09:55:42;;;;;;;;;;;21.90;58.80;;;;;;5071751;28;20373;-83
2023/04/12 09:58:08;;;;;;;;;;;21.70;54.20;;;;;;5071730;28;19919;-84
2023/04/12 10:00:35;;;;;;;;;;;21.80;59.50;;;;;;5073299;28;19963;-82
2023/04/12 10:03:02;;;;;;;;;;;21.90;59.60;;;;;;5075788;28;20001;-82
2023/04/12 10:05:27;;;;;;;;;;;21.90;52.10;;;;;;5077359;28;19943;-83
2023/04/12 10:07:56;;;;;;;;;;;19.80;50.60;;;;;;5059670;28;19916;-81
2023/04/12 10:10:27;;;;;;;;;;;20.60;56.00;;;;;;5067334;28;19916;-81
2023/04/12 10:12:53;;;;;;;;;;;20.80;57.60;;;;;;5074232;28;19951;-80
2023/04/12 10:15:22;;;;;;;;;;;20.70;58.50;;;;;;5074640;28;20008;-81
2023/04/12 10:17:56;;;;;;;;;;;21.20;58.60;;;;;;5076351;28;19916;-81
2023/04/12 10:20:22;;;;;;;;;;;21.10;57.00;;;;;;5076360;28;19916;-81
2023/04/12 10:22:49;;;;;;;;;;;21.40;60.80;;;;;;5075130;28;21310;-81
2023/04/12 10:25:18;;;;;;;;;;;21.50;57.10;;;;;;5075077;28;19920;-81
2023/04/12 10:27:45;;;;;;;;;;;21.40;57.50;;;;;;5075859;28;19916;-81
2023/04/12 10:30:20;;;;;;;;;;;21.30;53.80;;;;;;5075416;28;20703;-80
2023/04/12 10:32:46;;;;;;;;;;;20.60;52.20;;;;;;5069779;28;19916;-82
2023/04/12 10:35:11;;;;;;;;;;;21.50;54.00;;;;;;5075597;28;19918;-82
2023/04/12 10:37:57;;;;;;;;;;;21.90;49.90;;;;;;5076074;28;19916;-80
2023/04/12 10:40:23;;;;;;;;;;;22.40;50.20;;;;;;5075386;28;19928;-80
2023/04/12 10:43:08;;;;;;;;;;;22.80;51.80;;;;;;5074887;28;19916;-82
2023/04/12 10:45:35;;;;;;;;;;;22.90;51.30;;;;;;5074829;28;19920;-82
2023/04/12 10:48:02;;;;;;;;;;;22.40;51.80;;;;;;5075445;28;19977;-82
2023/04/12 10:50:32;;;;;;;;;;;22.30;53.50;;;;;;5075878;28;19916;-82
2023/04/12 10:53:09;;;;;;;;;;;21.50;54.20;;;;;;5075975;28;19916;-83
2023/04/12 10:55:37;;;;;;;;;;;21.90;54.90;;;;;;5057592;28;19924;-83
2023/04/12 10:58:03;;;;;;;;;;;21.90;55.50;;;;;;5068474;28;19916;-83
2023/04/12 11:00:49;;;;;;;;;;;21.90;53.20;;;;;;5063150;28;20728;-83
2023/04/12 11:03:15;;;;;;;;;;;22.10;54.20;;;;;;5068659;28;20369;-81
2023/04/12 11:05:59;;;;;;;;;;;21.60;52.50;;;;;;5069495;28;19917;-80
2023/04/12 11:08:45;;;;;;;;;;;21.50;56.00;;;;;;5056588;28;19923;-79
2023/04/12 11:11:33;;;;;;;;;;;21.00;55.40;;;;;;5063043;28;19916;-80
2023/04/12 11:14:01;;;;;;;;;;;21.50;54.40;;;;;;5057263;28;19920;-79
2023/04/12 11:16:26;;;;;;;;;;;21.90;53.70;;;;;;5054977;28;20019;-80
2023/04/12 11:18:52;;;;;;;;;;;22.60;55.30;;;;;;5073053;28;19994;-79
2023/04/12 11:21:19;;;;;;;;;;;22.40;49.00;;;;;;5072984;28;20416;-79
2023/04/12 11:23:45;;;;;;;;;;;22.70;52.40;;;;;;5074413;28;19920;-80
2023/04/12 11:26:11;;;;;;;;;;;22.80;57.70;;;;;;5073886;28;20471;-80
2023/04/12 11:28:37;;;;;;;;;;;21.80;49.90;;;;;;5074864;28;19912;-79
2023/04/12 11:31:02;;;;;;;;;;;21.80;53.70;;;;;;5073249;28;19916;-80
2023/04/12 11:33:34;;;;;;;;;;;22.30;59.40;;;;;;5073773;28;19968;-79
2023/04/12 11:36:05;;;;;;;;;;;22.60;54.90;;;;;;5072038;28;19923;-79
2023/04/12 11:38:31;;;;;;;;;;;22.50;49.80;;;;;;5072480;28;19958;-79
2023/04/12 11:40:57;;;;;;;;;;;22.40;54.30;;;;;;5071935;28;20338;-80
2023/04/12 11:43:22;;;;;;;;;;;22.50;50.60;;;;;;5072804;28;19920;-79
2023/04/12 11:45:54;;;;;;;;;;;23.00;52.70;;;;;;5072548;28;19959;-79
2023/04/12 11:48:20;;;;;;;;;;;22.90;55.50;;;;;;5073321;28;20724;-80
2023/04/12 11:50:46;;;;;;;;;;;22.50;49.90;;;;;;5072764;28;19946;-81
2023/04/12 11:53:12;;;;;;;;;;;22.50;50.20;;;;;;5074266;28;19919;-81
2023/04/12 11:55:38;;;;;;;;;;;22.40;50.90;;;;;;5069480;28;20031;-81
2023/04/12 11:58:03;;;;;;;;;;;22.80;47.90;;;;;;5068844;28;19999;-81
2023/04/12 12:00:30;;;;;;;;;;;22.60;51.40;;;;;;5067297;28;19923;-81
2023/04/12 12:02:56;;;;;;;;;;;22.80;50.40;;;;;;5067742;28;19961;-81
2023/04/12 12:05:22;;;;;;;;;;;22.20;49.10;;;;;;5066911;28;19927;-80
2023/04/12 12:07:48;;;;;;;;;;;21.90;49.00;;;;;;5067085;28;20384;-81
2023/04/12 12:10:14;;;;;;;;;;;22.00;47.90;;;;;;5068219;28;19912;-80
2023/04/12 12:12:42;;;;;;;;;;;21.80;46.40;;;;;;5068154;28;19916;-81
2023/04/12 12:15:08;;;;;;;;;;;21.80;48.90;;;;;;5067762;28;19923;-81
2023/04/12 12:17:37;;;;;;;;;;;21.80;45.20;;;;;;5068168;28;19916;-81
2023/04/12 12:20:03;;;;;;;;;;;22.00;45.10;;;;;;5068103;28;19923;-81
2023/04/12 12:22:29;;;;;;;;;;;21.90;45.70;;;;;;5068711;28;19916;-80
2023/04/12 12:24:59;;;;;;;;;;;21.80;46.10;;;;;;5035081;28;20571;-80
2023/04/12 12:27:36;;;;;;;;;;;21.90;46.20;;;;;;5071648;28;19960;-80
2023/04/12 12:30:03;;;;;;;;;;;21.90;52.20;;;;;;5053503;28;19916;-81
2023/04/12 12:32:39;;;;;;;;;;;21.80;47.90;;;;;;5070917;28;20420;-81
2023/04/12 12:35:18;;;;;;;;;;;22.10;45.60;;;;;;5071792;28;19916;-80
2023/04/12 12:37:54;;;;;;;;;;;22.40;46.60;;;;;;5071298;28;19931;-80
2023/04/12 12:40:31;;;;;;;;;;;22.50;46.50;;;;;;5071458;28;19916;-80
2023/04/12 12:42:57;;;;;;;;;;;22.00;55.70;;;;;;5072191;28;20343;-79
2023/04/12 12:45:24;;;;;;;;;;;22.40;53.80;;;;;;5071986;28;19920;-80
2023/04/12 12:47:54;;;;;;;;;;;22.30;48.80;;;;;;5072237;28;19916;-80
2023/04/12 12:50:24;;;;;;;;;;;21.90;45.80;;;;;;5071321;28;19916;-80
2023/04/12 12:52:50;;;;;;;;;;;22.50;47.80;;;;;;5071910;28;20646;-79
2023/04/12 12:55:16;;;;;;;;;;;22.90;45.20;;;;;;5070488;28;20281;-79
2023/04/12 12:57:43;;;;;;;;;;;22.50;55.60;;;;;;5068639;28;19985;-80
2023/04/12 13:00:09;;;;;;;;;;;22.60;52.40;;;;;;5069775;28;19955;-79
2023/04/12 13:02:36;;;;;;;;;;;22.40;50.00;;;;;;5068517;28;20392;-79
2023/04/12 13:05:03;;;;;;;;;;;22.30;46.10;;;;;;5069519;28;19916;-79
2023/04/12 13:07:29;;;;;;;;;;;22.10;41.60;;;;;;5070479;28;19943;-79
2023/04/12 13:09:54;;;;;;;;;;;22.30;43.40;;;;;;5068931;28;20042;-78
2023/04/12 13:12:20;;;;;;;;;;;22.20;42.80;;;;;;5069322;28;19916;-78
2023/04/12 13:14:47;;;;;;;;;;;22.30;41.50;;;;;;5068995;28;20281;-78
2023/04/12 13:17:13;;;;;;;;;;;22.40;45.30;;;;;;5070156;28;19916;-79
2023/04/12 13:19:39;;;;;;;;;;;22.50;42.50;;;;;;5070432;28;19916;-78
2023/04/12 13:22:07;;;;;;;;;;;22.20;43.60;;;;;;5071135;28;19916;-78
2023/04/12 13:24:33;;;;;;;;;;;22.50;46.80;;;;;;5088353;28;19916;-78
2023/04/12 13:26:59;;;;;;;;;;;22.60;44.30;;;;;;5095161;28;19920;-77
2023/04/12 13:29:25;;;;;;;;;;;21.90;44.10;;;;;;5096214;28;19970;-78
2023/04/12 13:31:51;;;;;;;;;;;22.20;43.70;;;;;;5095793;28;19923;-78
2023/04/12 13:34:16;;;;;;;;;;;21.60;42.60;;;;;;5095286;28;19916;-78
2023/04/12 13:36:42;;;;;;;;;;;21.50;41.20;;;;;;5093977;28;20427;-78
2023/04/12 13:39:08;;;;;;;;;;;21.60;41.60;;;;;;5095202;28;19916;-77
2023/04/12 13:41:34;;;;;;;;;;;21.50;42.50;;;;;;5095266;28;20347;-77
2023/04/12 13:44:00;;;;;;;;;;;21.50;42.70;;;;;;5094749;28;19963;-77
2023/04/12 13:46:26;;;;;;;;;;;21.60;42.10;;;;;;5094621;28;19959;-77
2023/04/12 13:48:51;;;;;;;;;;;22.00;42.40;;;;;;5094851;28;19916;-77
2023/04/12 13:51:17;;;;;;;;;;;22.20;40.70;;;;;;5094677;28;20007;-77
2023/04/12 13:53:43;;;;;;;;;;;22.20;45.20;;;;;;5094732;28;20352;-77
2023/04/12 13:56:10;;;;;;;;;;;22.30;44.70;;;;;;5094474;28;19951;-77
2023/04/12 13:58:38;;;;;;;;;;;22.10;44.00;;;;;;5094259;28;20559;-77
2023/04/12 14:01:05;;;;;;;;;;;21.90;43.20;;;;;;5094724;28;19943;-77
2023/04/12 14:03:30;;;;;;;;;;;21.80;45.60;;;;;;5094399;28;20318;-77
2023/04/12 14:05:56;;;;;;;;;;;21.50;43.50;;;;;;5094160;28;20026;-77
2023/04/12 14:08:22;;;;;;;;;;;21.50;44.50;;;;;;5094261;28;19959;-77
2023/04/12 14:10:48;;;;;;;;;;;21.30;43.40;;;;;;5094649;28;19947;-77
2023/04/12 14:13:14;;;;;;;;;;;21.10;46.20;;;;;;5094051;28;19970;-77
2023/04/12 14:15:40;;;;;;;;;;;20.70;45.60;;;;;;5094072;28;19912;-77
2023/04/12 14:18:06;;;;;;;;;;;21.00;43.20;;;;;;5094084;28;19912;-76
2023/04/12 14:20:31;;;;;;;;;;;21.00;45.60;;;;;;5094104;28;19912;-77
2023/04/12 14:22:57;;;;;;;;;;;21.10;41.20;;;;;;5094169;28;19912;-77
2023/04/12 14:25:23;;;;;;;;;;;21.00;42.50;;;;;;5093906;28;20365;-77
2023/04/12 14:27:50;;;;;;;;;;;21.10;45.20;;;;;;5094075;28;20387;-76